sensor_id;sensor_type;location;lat;lon;timestamp;P1;durP1;ratioP1;P2;durP2;ratioP2
55784;SDS011;41709;52.536;5.688;2024-03-08T00:01:35;30.13;;;16.00;;
55784;SDS011;41709;52.536;5.688;2024-03-08T00:04:00;27.73;;;15.63;;
55784;SDS011;41709;52.536;5.688;2024-03-08T00:06:26;32.97;;;17.42;;
55784;SDS011;41709;52.536;5.688;2024-03-08T00:08:52;37.90;;;18.05;;
55784;SDS011;41709;52.536;5.688;2024-03-08T00:11:17;37.20;;;17.50;;
55784;SDS011;41709;52.536;5.688;2024-03-08T00:13:43;31.70;;;16.55;;
55784;SDS011;41709;52.536;5.688;2024-03-08T00:16:10;28.00;;;15.57;;
55784;SDS011;41709;52.536;5.688;2024-03-08T00:18:35;29.75;;;15.15;;
55784;SDS011;41709;52.536;5.688;2024-03-08T00:21:01;29.88;;;16.92;;
55784;SDS011;41709;52.536;5.688;2024-03-08T00:23:27;30.35;;;16.35;;
55784;SDS011;41709;52.536;5.688;2024-03-08T00:25:53;33.10;;;16.80;;
55784;SDS011;41709;52.536;5.688;2024-03-08T00:28:20;30.60;;;17.08;;
55784;SDS011;41709;52.536;5.688;2024-03-08T00:30:46;30.85;;;17.73;;
55784;SDS011;41709;52.536;5.688;2024-03-08T00:33:12;30.65;;;17.20;;
55784;SDS011;41709;52.536;5.688;2024-03-08T00:35:39;33.83;;;17.10;;
55784;SDS011;41709;52.536;5.688;2024-03-08T00:38:04;34.85;;;17.15;;
55784;SDS011;41709;52.536;5.688;2024-03-08T00:40:30;32.28;;;17.55;;
55784;SDS011;41709;52.536;5.688;2024-03-08T00:42:55;33.25;;;16.55;;
55784;SDS011;41709;52.536;5.688;2024-03-08T00:45:21;32.50;;;17.67;;
55784;SDS011;41709;52.536;5.688;2024-03-08T00:47:48;33.13;;;16.85;;
55784;SDS011;41709;52.536;5.688;2024-03-08T00:50:14;32.22;;;16.60;;
55784;SDS011;41709;52.536;5.688;2024-03-08T00:52:39;36.58;;;17.67;;
55784;SDS011;41709;52.536;5.688;2024-03-08T00:55:05;28.42;;;16.52;;
55784;SDS011;41709;52.536;5.688;2024-03-08T00:57:31;30.92;;;16.50;;
55784;SDS011;41709;52.536;5.688;2024-03-08T00:59:57;30.73;;;17.85;;
55784;SDS011;41709;52.536;5.688;2024-03-08T01:02:23;28.92;;;16.85;;
55784;SDS011;41709;52.536;5.688;2024-03-08T01:04:49;35.03;;;17.00;;
55784;SDS011;41709;52.536;5.688;2024-03-08T01:07:15;27.08;;;15.95;;
55784;SDS011;41709;52.536;5.688;2024-03-08T01:09:40;31.38;;;17.48;;
55784;SDS011;41709;52.536;5.688;2024-03-08T01:12:06;28.67;;;16.52;;
55784;SDS011;41709;52.536;5.688;2024-03-08T01:14:32;37.60;;;18.35;;
55784;SDS011;41709;52.536;5.688;2024-03-08T01:16:58;32.63;;;17.00;;
55784;SDS011;41709;52.536;5.688;2024-03-08T01:19:24;27.80;;;17.00;;
55784;SDS011;41709;52.536;5.688;2024-03-08T01:21:49;35.55;;;17.83;;
55784;SDS011;41709;52.536;5.688;2024-03-08T01:24:15;28.13;;;16.38;;
55784;SDS011;41709;52.536;5.688;2024-03-08T01:26:41;31.13;;;16.83;;
55784;SDS011;41709;52.536;5.688;2024-03-08T01:29:06;33.05;;;17.30;;
55784;SDS011;41709;52.536;5.688;2024-03-08T01:31:33;31.58;;;17.10;;
55784;SDS011;41709;52.536;5.688;2024-03-08T01:33:58;31.92;;;17.00;;
55784;SDS011;41709;52.536;5.688;2024-03-08T01:36:24;29.60;;;16.65;;
55784;SDS011;41709;52.536;5.688;2024-03-08T01:38:50;31.58;;;17.58;;
55784;SDS011;41709;52.536;5.688;2024-03-08T01:41:16;30.45;;;16.77;;
55784;SDS011;41709;52.536;5.688;2024-03-08T01:43:43;32.28;;;17.40;;
55784;SDS011;41709;52.536;5.688;2024-03-08T01:46:09;31.67;;;17.33;;
55784;SDS011;41709;52.536;5.688;2024-03-08T01:48:37;30.17;;;17.30;;
55784;SDS011;41709;52.536;5.688;2024-03-08T01:51:04;33.25;;;18.45;;
55784;SDS011;41709;52.536;5.688;2024-03-08T01:53:30;31.58;;;16.65;;
55784;SDS011;41709;52.536;5.688;2024-03-08T01:55:56;31.08;;;17.02;;
55784;SDS011;41709;52.536;5.688;2024-03-08T01:58:23;32.85;;;17.90;;
55784;SDS011;41709;52.536;5.688;2024-03-08T02:00:49;30.48;;;16.70;;
55784;SDS011;41709;52.536;5.688;2024-03-08T02:03:15;33.88;;;17.25;;
55784;SDS011;41709;52.536;5.688;2024-03-08T02:05:41;31.58;;;18.20;;
55784;SDS011;41709;52.536;5.688;2024-03-08T02:08:07;31.35;;;17.80;;
55784;SDS011;41709;52.536;5.688;2024-03-08T02:10:37;34.03;;;18.83;;
55784;SDS011;41709;52.536;5.688;2024-03-08T02:13:04;33.33;;;17.30;;
55784;SDS011;41709;52.536;5.688;2024-03-08T02:18:17;32.13;;;17.20;;
55784;SDS011;41709;52.536;5.688;2024-03-08T02:20:43;30.75;;;18.02;;
55784;SDS011;41709;52.536;5.688;2024-03-08T02:23:08;33.45;;;17.20;;
55784;SDS011;41709;52.536;5.688;2024-03-08T02:25:34;29.83;;;15.70;;
55784;SDS011;41709;52.536;5.688;2024-03-08T02:28:00;29.98;;;16.02;;
55784;SDS011;41709;52.536;5.688;2024-03-08T02:30:26;32.30;;;17.55;;
55784;SDS011;41709;52.536;5.688;2024-03-08T02:32:54;34.10;;;17.40;;
55784;SDS011;41709;52.536;5.688;2024-03-08T02:35:20;30.77;;;17.65;;
55784;SDS011;41709;52.536;5.688;2024-03-08T02:37:46;32.17;;;18.27;;
55784;SDS011;41709;52.536;5.688;2024-03-08T02:40:12;30.58;;;16.60;;
55784;SDS011;41709;52.536;5.688;2024-03-08T02:42:38;34.70;;;17.98;;
55784;SDS011;41709;52.536;5.688;2024-03-08T02:45:04;32.35;;;17.90;;
55784;SDS011;41709;52.536;5.688;2024-03-08T02:47:30;29.80;;;17.48;;
55784;SDS011;41709;52.536;5.688;2024-03-08T02:49:56;29.73;;;17.17;;
55784;SDS011;41709;52.536;5.688;2024-03-08T02:52:22;35.72;;;17.65;;
55784;SDS011;41709;52.536;5.688;2024-03-08T02:54:48;30.42;;;16.98;;
55784;SDS011;41709;52.536;5.688;2024-03-08T02:57:14;34.65;;;16.30;;
55784;SDS011;41709;52.536;5.688;2024-03-08T02:59:40;35.40;;;18.58;;
55784;SDS011;41709;52.536;5.688;2024-03-08T03:02:06;32.10;;;17.77;;
55784;SDS011;41709;52.536;5.688;2024-03-08T03:04:32;30.17;;;16.55;;
55784;SDS011;41709;52.536;5.688;2024-03-08T03:07:00;33.08;;;18.02;;
55784;SDS011;41709;52.536;5.688;2024-03-08T03:09:25;30.40;;;17.70;;
55784;SDS011;41709;52.536;5.688;2024-03-08T03:11:53;38.88;;;18.20;;
55784;SDS011;41709;52.536;5.688;2024-03-08T03:14:20;33.55;;;16.85;;
55784;SDS011;41709;52.536;5.688;2024-03-08T03:16:46;31.80;;;17.45;;
55784;SDS011;41709;52.536;5.688;2024-03-08T03:19:12;29.38;;;16.98;;
55784;SDS011;41709;52.536;5.688;2024-03-08T03:21:37;31.40;;;17.55;;
55784;SDS011;41709;52.536;5.688;2024-03-08T03:24:03;36.20;;;18.83;;
55784;SDS011;41709;52.536;5.688;2024-03-08T03:26:34;33.13;;;17.92;;
55784;SDS011;41709;52.536;5.688;2024-03-08T03:29:07;33.38;;;19.42;;
55784;SDS011;41709;52.536;5.688;2024-03-08T03:31:34;33.28;;;17.65;;
55784;SDS011;41709;52.536;5.688;2024-03-08T03:34:01;31.77;;;18.52;;
55784;SDS011;41709;52.536;5.688;2024-03-08T03:36:30;31.98;;;18.02;;
55784;SDS011;41709;52.536;5.688;2024-03-08T03:38:56;33.47;;;20.58;;
55784;SDS011;41709;52.536;5.688;2024-03-08T03:41:30;34.35;;;18.83;;
55784;SDS011;41709;52.536;5.688;2024-03-08T03:43:56;36.72;;;20.27;;
55784;SDS011;41709;52.536;5.688;2024-03-08T03:46:22;32.42;;;17.75;;
55784;SDS011;41709;52.536;5.688;2024-03-08T03:48:47;31.95;;;18.60;;
55784;SDS011;41709;52.536;5.688;2024-03-08T03:51:13;33.10;;;18.40;;
55784;SDS011;41709;52.536;5.688;2024-03-08T03:53:40;38.40;;;19.38;;
55784;SDS011;41709;52.536;5.688;2024-03-08T03:56:06;38.50;;;18.33;;
55784;SDS011;41709;52.536;5.688;2024-03-08T03:58:35;34.63;;;17.83;;
55784;SDS011;41709;52.536;5.688;2024-03-08T04:01:01;30.13;;;18.13;;
55784;SDS011;41709;52.536;5.688;2024-03-08T04:03:29;31.58;;;19.13;;
55784;SDS011;41709;52.536;5.688;2024-03-08T04:05:54;31.60;;;18.92;;
55784;SDS011;41709;52.536;5.688;2024-03-08T04:08:20;34.72;;;19.13;;
55784;SDS011;41709;52.536;5.688;2024-03-08T04:10:45;32.60;;;18.45;;
55784;SDS011;41709;52.536;5.688;2024-03-08T04:13:11;35.75;;;18.27;;
55784;SDS011;41709;52.536;5.688;2024-03-08T04:15:37;30.52;;;18.63;;
55784;SDS011;41709;52.536;5.688;2024-03-08T04:18:03;30.70;;;18.50;;
55784;SDS011;41709;52.536;5.688;2024-03-08T04:20:28;38.25;;;19.90;;
55784;SDS011;41709;52.536;5.688;2024-03-08T04:22:55;34.65;;;18.73;;
55784;SDS011;41709;52.536;5.688;2024-03-08T04:25:21;30.08;;;18.45;;
55784;SDS011;41709;52.536;5.688;2024-03-08T04:27:47;30.63;;;18.35;;
55784;SDS011;41709;52.536;5.688;2024-03-08T04:30:14;36.97;;;20.42;;
55784;SDS011;41709;52.536;5.688;2024-03-08T04:32:40;31.98;;;19.02;;
55784;SDS011;41709;52.536;5.688;2024-03-08T04:35:06;30.00;;;18.17;;
55784;SDS011;41709;52.536;5.688;2024-03-08T04:37:33;32.22;;;19.90;;
55784;SDS011;41709;52.536;5.688;2024-03-08T04:39:59;31.75;;;18.60;;
55784;SDS011;41709;52.536;5.688;2024-03-08T04:42:25;32.15;;;20.10;;
55784;SDS011;41709;52.536;5.688;2024-03-08T04:44:54;32.25;;;19.65;;
55784;SDS011;41709;52.536;5.688;2024-03-08T04:47:20;33.63;;;20.15;;
55784;SDS011;41709;52.536;5.688;2024-03-08T04:49:45;31.63;;;19.75;;
55784;SDS011;41709;52.536;5.688;2024-03-08T04:52:11;31.08;;;19.10;;
55784;SDS011;41709;52.536;5.688;2024-03-08T04:54:37;33.13;;;18.92;;
55784;SDS011;41709;52.536;5.688;2024-03-08T04:57:02;36.05;;;20.50;;
55784;SDS011;41709;52.536;5.688;2024-03-08T04:59:29;31.40;;;19.27;;
55784;SDS011;41709;52.536;5.688;2024-03-08T05:01:55;34.47;;;19.85;;
55784;SDS011;41709;52.536;5.688;2024-03-08T05:04:21;32.72;;;20.52;;
55784;SDS011;41709;52.536;5.688;2024-03-08T05:06:47;31.75;;;20.48;;
55784;SDS011;41709;52.536;5.688;2024-03-08T05:09:13;35.13;;;20.35;;
55784;SDS011;41709;52.536;5.688;2024-03-08T05:11:42;33.28;;;19.73;;
55784;SDS011;41709;52.536;5.688;2024-03-08T05:14:09;36.13;;;20.13;;
55784;SDS011;41709;52.536;5.688;2024-03-08T05:16:35;39.13;;;21.60;;
55784;SDS011;41709;52.536;5.688;2024-03-08T05:19:01;31.83;;;20.92;;
55784;SDS011;41709;52.536;5.688;2024-03-08T05:21:29;31.92;;;19.80;;
55784;SDS011;41709;52.536;5.688;2024-03-08T05:23:55;37.63;;;21.85;;
55784;SDS011;41709;52.536;5.688;2024-03-08T05:26:20;33.35;;;19.95;;
55784;SDS011;41709;52.536;5.688;2024-03-08T05:28:47;34.45;;;20.70;;
55784;SDS011;41709;52.536;5.688;2024-03-08T05:31:20;31.90;;;20.50;;
55784;SDS011;41709;52.536;5.688;2024-03-08T05:33:49;32.40;;;19.52;;
55784;SDS011;41709;52.536;5.688;2024-03-08T05:36:15;31.00;;;19.30;;
55784;SDS011;41709;52.536;5.688;2024-03-08T05:38:42;36.30;;;20.92;;
55784;SDS011;41709;52.536;5.688;2024-03-08T05:41:08;35.60;;;21.10;;
55784;SDS011;41709;52.536;5.688;2024-03-08T05:43:34;34.28;;;21.27;;
55784;SDS011;41709;52.536;5.688;2024-03-08T05:46:00;34.25;;;20.35;;
55784;SDS011;41709;52.536;5.688;2024-03-08T05:48:25;32.90;;;21.52;;
55784;SDS011;41709;52.536;5.688;2024-03-08T05:50:51;37.05;;;21.52;;
55784;SDS011;41709;52.536;5.688;2024-03-08T05:53:16;34.53;;;21.77;;
55784;SDS011;41709;52.536;5.688;2024-03-08T05:55:42;32.42;;;20.50;;
55784;SDS011;41709;52.536;5.688;2024-03-08T05:58:08;38.13;;;22.40;;
55784;SDS011;41709;52.536;5.688;2024-03-08T06:00:36;35.13;;;21.63;;
55784;SDS011;41709;52.536;5.688;2024-03-08T06:03:02;31.48;;;20.92;;
55784;SDS011;41709;52.536;5.688;2024-03-08T06:05:27;37.30;;;21.45;;
55784;SDS011;41709;52.536;5.688;2024-03-08T06:07:53;37.38;;;22.48;;
55784;SDS011;41709;52.536;5.688;2024-03-08T06:10:19;34.45;;;21.55;;
55784;SDS011;41709;52.536;5.688;2024-03-08T06:12:44;35.72;;;23.15;;
55784;SDS011;41709;52.536;5.688;2024-03-08T06:15:10;36.20;;;22.02;;
55784;SDS011;41709;52.536;5.688;2024-03-08T06:20:05;34.38;;;22.10;;
55784;SDS011;41709;52.536;5.688;2024-03-08T06:22:37;34.72;;;22.33;;
55784;SDS011;41709;52.536;5.688;2024-03-08T06:25:05;37.05;;;21.95;;
55784;SDS011;41709;52.536;5.688;2024-03-08T06:27:32;40.03;;;22.13;;
55784;SDS011;41709;52.536;5.688;2024-03-08T06:29:59;36.40;;;22.33;;
55784;SDS011;41709;52.536;5.688;2024-03-08T06:32:25;36.60;;;22.95;;
55784;SDS011;41709;52.536;5.688;2024-03-08T06:34:50;38.25;;;22.08;;
55784;SDS011;41709;52.536;5.688;2024-03-08T06:37:16;34.80;;;20.70;;
55784;SDS011;41709;52.536;5.688;2024-03-08T06:39:46;38.92;;;22.48;;
55784;SDS011;41709;52.536;5.688;2024-03-08T06:42:20;34.97;;;21.58;;
55784;SDS011;41709;52.536;5.688;2024-03-08T06:44:45;33.47;;;22.45;;
55784;SDS011;41709;52.536;5.688;2024-03-08T06:47:17;33.08;;;22.05;;
55784;SDS011;41709;52.536;5.688;2024-03-08T06:49:43;33.60;;;21.90;;
55784;SDS011;41709;52.536;5.688;2024-03-08T06:52:12;33.85;;;20.90;;
55784;SDS011;41709;52.536;5.688;2024-03-08T06:54:37;34.38;;;21.98;;
55784;SDS011;41709;52.536;5.688;2024-03-08T06:57:03;45.95;;;23.65;;
55784;SDS011;41709;52.536;5.688;2024-03-08T06:59:30;37.03;;;21.83;;
55784;SDS011;41709;52.536;5.688;2024-03-08T07:01:56;36.05;;;20.75;;
55784;SDS011;41709;52.536;5.688;2024-03-08T07:04:21;38.47;;;23.40;;
55784;SDS011;41709;52.536;5.688;2024-03-08T07:06:51;40.90;;;23.92;;
55784;SDS011;41709;52.536;5.688;2024-03-08T07:09:17;33.70;;;21.92;;
55784;SDS011;41709;52.536;5.688;2024-03-08T07:11:42;36.63;;;21.33;;
55784;SDS011;41709;52.536;5.688;2024-03-08T07:14:08;35.30;;;20.38;;
55784;SDS011;41709;52.536;5.688;2024-03-08T07:16:34;37.85;;;21.35;;
55784;SDS011;41709;52.536;5.688;2024-03-08T07:19:00;36.55;;;21.13;;
55784;SDS011;41709;52.536;5.688;2024-03-08T07:21:26;34.72;;;21.77;;
55784;SDS011;41709;52.536;5.688;2024-03-08T07:23:52;32.13;;;20.70;;
55784;SDS011;41709;52.536;5.688;2024-03-08T07:26:24;33.45;;;19.95;;
55784;SDS011;41709;52.536;5.688;2024-03-08T07:28:49;37.22;;;21.45;;
55784;SDS011;41709;52.536;5.688;2024-03-08T07:31:15;36.22;;;22.50;;
55784;SDS011;41709;52.536;5.688;2024-03-08T07:33:52;35.08;;;20.90;;
55784;SDS011;41709;52.536;5.688;2024-03-08T07:36:18;35.15;;;21.27;;
55784;SDS011;41709;52.536;5.688;2024-03-08T07:38:44;40.53;;;21.17;;
55784;SDS011;41709;52.536;5.688;2024-03-08T07:41:13;39.83;;;21.20;;
55784;SDS011;41709;52.536;5.688;2024-03-08T07:43:40;40.20;;;22.80;;
55784;SDS011;41709;52.536;5.688;2024-03-08T07:46:05;39.13;;;21.65;;
55784;SDS011;41709;52.536;5.688;2024-03-08T07:48:31;38.15;;;21.67;;
55784;SDS011;41709;52.536;5.688;2024-03-08T07:50:56;33.63;;;20.98;;
55784;SDS011;41709;52.536;5.688;2024-03-08T07:53:22;33.38;;;21.08;;
55784;SDS011;41709;52.536;5.688;2024-03-08T07:55:51;36.42;;;21.63;;
55784;SDS011;41709;52.536;5.688;2024-03-08T07:58:17;35.40;;;21.08;;
55784;SDS011;41709;52.536;5.688;2024-03-08T08:00:43;38.28;;;22.58;;
55784;SDS011;41709;52.536;5.688;2024-03-08T08:03:08;37.42;;;23.20;;
55784;SDS011;41709;52.536;5.688;2024-03-08T08:05:34;37.20;;;21.63;;
55784;SDS011;41709;52.536;5.688;2024-03-08T08:08:02;36.92;;;22.83;;
55784;SDS011;41709;52.536;5.688;2024-03-08T08:10:31;38.05;;;22.83;;
55784;SDS011;41709;52.536;5.688;2024-03-08T08:12:57;38.08;;;22.67;;
55784;SDS011;41709;52.536;5.688;2024-03-08T08:15:23;35.95;;;21.67;;
55784;SDS011;41709;52.536;5.688;2024-03-08T08:17:49;35.10;;;21.92;;
55784;SDS011;41709;52.536;5.688;2024-03-08T08:20:14;36.13;;;22.92;;
55784;SDS011;41709;52.536;5.688;2024-03-08T08:22:40;35.85;;;22.33;;
55784;SDS011;41709;52.536;5.688;2024-03-08T08:25:08;38.45;;;22.02;;
55784;SDS011;41709;52.536;5.688;2024-03-08T08:27:33;39.22;;;23.17;;
55784;SDS011;41709;52.536;5.688;2024-03-08T08:30:01;34.53;;;20.98;;
55784;SDS011;41709;52.536;5.688;2024-03-08T08:32:27;37.30;;;22.65;;
55784;SDS011;41709;52.536;5.688;2024-03-08T08:34:53;33.55;;;21.27;;
55784;SDS011;41709;52.536;5.688;2024-03-08T08:37:18;36.13;;;21.13;;
55784;SDS011;41709;52.536;5.688;2024-03-08T08:39:44;34.30;;;21.48;;
55784;SDS011;41709;52.536;5.688;2024-03-08T08:42:10;37.00;;;22.10;;
55784;SDS011;41709;52.536;5.688;2024-03-08T08:44:36;38.20;;;21.90;;
55784;SDS011;41709;52.536;5.688;2024-03-08T08:47:01;37.58;;;21.73;;
55784;SDS011;41709;52.536;5.688;2024-03-08T08:49:28;32.50;;;21.48;;
55784;SDS011;41709;52.536;5.688;2024-03-08T08:51:55;35.28;;;22.23;;
55784;SDS011;41709;52.536;5.688;2024-03-08T08:54:23;31.65;;;21.15;;
55784;SDS011;41709;52.536;5.688;2024-03-08T08:56:50;34.00;;;21.13;;
55784;SDS011;41709;52.536;5.688;2024-03-08T08:59:16;35.30;;;22.77;;
55784;SDS011;41709;52.536;5.688;2024-03-08T09:01:44;35.05;;;21.15;;
55784;SDS011;41709;52.536;5.688;2024-03-08T09:04:12;33.67;;;20.73;;
55784;SDS011;41709;52.536;5.688;2024-03-08T09:06:38;36.60;;;21.30;;
55784;SDS011;41709;52.536;5.688;2024-03-08T09:09:06;35.47;;;21.27;;
55784;SDS011;41709;52.536;5.688;2024-03-08T09:11:34;34.55;;;20.60;;
55784;SDS011;41709;52.536;5.688;2024-03-08T09:13:59;31.27;;;20.60;;
55784;SDS011;41709;52.536;5.688;2024-03-08T09:16:27;30.88;;;20.83;;
55784;SDS011;41709;52.536;5.688;2024-03-08T09:18:52;31.25;;;20.15;;
55784;SDS011;41709;52.536;5.688;2024-03-08T09:21:18;34.20;;;20.75;;
55784;SDS011;41709;52.536;5.688;2024-03-08T09:23:43;34.65;;;21.05;;
55784;SDS011;41709;52.536;5.688;2024-03-08T09:26:10;32.10;;;20.58;;
55784;SDS011;41709;52.536;5.688;2024-03-08T09:28:37;34.55;;;21.08;;
55784;SDS011;41709;52.536;5.688;2024-03-08T09:31:03;33.38;;;21.38;;
55784;SDS011;41709;52.536;5.688;2024-03-08T09:33:30;34.83;;;21.02;;
55784;SDS011;41709;52.536;5.688;2024-03-08T09:35:56;35.38;;;21.83;;
55784;SDS011;41709;52.536;5.688;2024-03-08T09:38:24;30.15;;;20.05;;
55784;SDS011;41709;52.536;5.688;2024-03-08T09:40:50;33.40;;;20.63;;
55784;SDS011;41709;52.536;5.688;2024-03-08T09:43:16;34.90;;;20.63;;
55784;SDS011;41709;52.536;5.688;2024-03-08T09:45:43;34.38;;;20.67;;
55784;SDS011;41709;52.536;5.688;2024-03-08T09:48:11;31.52;;;21.30;;
55784;SDS011;41709;52.536;5.688;2024-03-08T09:50:39;31.70;;;20.27;;
55784;SDS011;41709;52.536;5.688;2024-03-08T09:53:08;33.70;;;21.27;;
55784;SDS011;41709;52.536;5.688;2024-03-08T09:55:36;29.45;;;19.17;;
55784;SDS011;41709;52.536;5.688;2024-03-08T09:58:05;30.98;;;19.65;;
55784;SDS011;41709;52.536;5.688;2024-03-08T10:00:49;29.63;;;19.58;;
55784;SDS011;41709;52.536;5.688;2024-03-08T10:03:15;36.05;;;20.67;;
55784;SDS011;41709;52.536;5.688;2024-03-08T10:05:41;34.15;;;20.65;;
55784;SDS011;41709;52.536;5.688;2024-03-08T10:08:09;29.83;;;20.23;;
55784;SDS011;41709;52.536;5.688;2024-03-08T10:10:35;31.50;;;19.42;;
55784;SDS011;41709;52.536;5.688;2024-03-08T10:13:02;31.70;;;19.92;;
55784;SDS011;41709;52.536;5.688;2024-03-08T10:15:34;30.00;;;19.88;;
55784;SDS011;41709;52.536;5.688;2024-03-08T10:18:00;32.63;;;20.60;;
55784;SDS011;41709;52.536;5.688;2024-03-08T10:20:27;31.40;;;19.75;;
55784;SDS011;41709;52.536;5.688;2024-03-08T10:22:57;35.10;;;21.20;;
55784;SDS011;41709;52.536;5.688;2024-03-08T10:25:23;32.08;;;20.17;;
55784;SDS011;41709;52.536;5.688;2024-03-08T10:27:49;31.40;;;19.90;;
55784;SDS011;41709;52.536;5.688;2024-03-08T10:30:16;31.92;;;19.95;;
55784;SDS011;41709;52.536;5.688;2024-03-08T10:32:46;31.15;;;20.63;;
55784;SDS011;41709;52.536;5.688;2024-03-08T10:35:12;33.83;;;21.45;;
55784;SDS011;41709;52.536;5.688;2024-03-08T10:37:48;33.90;;;21.05;;
55784;SDS011;41709;52.536;5.688;2024-03-08T10:40:22;33.67;;;20.45;;
55784;SDS011;41709;52.536;5.688;2024-03-08T10:42:53;29.17;;;19.30;;
55784;SDS011;41709;52.536;5.688;2024-03-08T10:45:24;31.27;;;20.33;;
55784;SDS011;41709;52.536;5.688;2024-03-08T10:50:45;31.27;;;19.63;;
55784;SDS011;41709;52.536;5.688;2024-03-08T10:53:11;31.25;;;20.02;;
55784;SDS011;41709;52.536;5.688;2024-03-08T10:55:39;31.30;;;19.90;;
55784;SDS011;41709;52.536;5.688;2024-03-08T10:58:08;29.00;;;19.13;;
55784;SDS011;41709;52.536;5.688;2024-03-08T11:00:34;29.52;;;19.67;;
55784;SDS011;41709;52.536;5.688;2024-03-08T11:03:00;31.15;;;19.75;;
55784;SDS011;41709;52.536;5.688;2024-03-08T11:05:39;33.88;;;20.13;;
55784;SDS011;41709;52.536;5.688;2024-03-08T11:08:24;32.47;;;20.30;;
55784;SDS011;41709;52.536;5.688;2024-03-08T11:10:51;30.70;;;18.58;;
55784;SDS011;41709;52.536;5.688;2024-03-08T11:13:32;34.20;;;19.40;;
55784;SDS011;41709;52.536;5.688;2024-03-08T11:16:12;30.98;;;19.73;;
55784;SDS011;41709;52.536;5.688;2024-03-08T11:19:01;32.20;;;19.15;;
55784;SDS011;41709;52.536;5.688;2024-03-08T11:21:35;31.00;;;19.42;;
55784;SDS011;41709;52.536;5.688;2024-03-08T11:24:11;30.17;;;19.23;;
55784;SDS011;41709;52.536;5.688;2024-03-08T11:26:41;31.35;;;19.45;;
55784;SDS011;41709;52.536;5.688;2024-03-08T11:32:04;31.67;;;19.75;;
55784;SDS011;41709;52.536;5.688;2024-03-08T11:34:36;31.95;;;18.48;;
55784;SDS011;41709;52.536;5.688;2024-03-08T11:37:19;26.95;;;18.30;;
55784;SDS011;41709;52.536;5.688;2024-03-08T11:39:46;30.08;;;19.25;;
55784;SDS011;41709;52.536;5.688;2024-03-08T11:42:15;32.67;;;19.58;;
55784;SDS011;41709;52.536;5.688;2024-03-08T11:44:45;28.75;;;18.73;;
55784;SDS011;41709;52.536;5.688;2024-03-08T11:47:12;27.55;;;17.33;;
55784;SDS011;41709;52.536;5.688;2024-03-08T11:49:39;26.90;;;18.48;;
55784;SDS011;41709;52.536;5.688;2024-03-08T11:52:10;29.83;;;18.55;;
55784;SDS011;41709;52.536;5.688;2024-03-08T11:54:40;31.77;;;19.45;;
55784;SDS011;41709;52.536;5.688;2024-03-08T11:57:06;31.65;;;19.17;;
55784;SDS011;41709;52.536;5.688;2024-03-08T11:59:32;28.77;;;18.67;;
55784;SDS011;41709;52.536;5.688;2024-03-08T12:01:59;29.13;;;19.33;;
55784;SDS011;41709;52.536;5.688;2024-03-08T12:04:24;31.20;;;19.75;;
55784;SDS011;41709;52.536;5.688;2024-03-08T12:06:50;28.90;;;19.38;;
55784;SDS011;41709;52.536;5.688;2024-03-08T12:09:15;35.08;;;18.58;;
55784;SDS011;41709;52.536;5.688;2024-03-08T12:11:41;29.85;;;20.08;;
55784;SDS011;41709;52.536;5.688;2024-03-08T12:14:08;27.73;;;19.40;;
55784;SDS011;41709;52.536;5.688;2024-03-08T12:16:38;29.48;;;18.67;;
55784;SDS011;41709;52.536;5.688;2024-03-08T12:19:04;30.27;;;19.45;;
55784;SDS011;41709;52.536;5.688;2024-03-08T12:21:31;32.75;;;20.05;;
55784;SDS011;41709;52.536;5.688;2024-03-08T12:24:07;29.55;;;19.10;;
55784;SDS011;41709;52.536;5.688;2024-03-08T12:26:37;34.80;;;19.23;;
55784;SDS011;41709;52.536;5.688;2024-03-08T12:31:47;28.88;;;18.13;;
55784;SDS011;41709;52.536;5.688;2024-03-08T12:34:13;29.17;;;18.17;;
55784;SDS011;41709;52.536;5.688;2024-03-08T12:36:49;26.38;;;16.90;;
55784;SDS011;41709;52.536;5.688;2024-03-08T12:39:19;28.40;;;17.67;;
55784;SDS011;41709;52.536;5.688;2024-03-08T12:41:52;30.33;;;18.73;;
55784;SDS011;41709;52.536;5.688;2024-03-08T12:44:18;29.23;;;18.77;;
55784;SDS011;41709;52.536;5.688;2024-03-08T12:46:46;27.23;;;17.33;;
55784;SDS011;41709;52.536;5.688;2024-03-08T12:49:13;27.30;;;18.10;;
55784;SDS011;41709;52.536;5.688;2024-03-08T12:51:42;26.88;;;17.48;;
55784;SDS011;41709;52.536;5.688;2024-03-08T12:54:11;24.85;;;17.92;;
55784;SDS011;41709;52.536;5.688;2024-03-08T12:56:37;24.70;;;16.48;;
55784;SDS011;41709;52.536;5.688;2024-03-08T12:59:04;24.63;;;16.30;;
55784;SDS011;41709;52.536;5.688;2024-03-08T13:01:32;28.52;;;17.58;;
55784;SDS011;41709;52.536;5.688;2024-03-08T13:03:58;29.83;;;17.40;;
55784;SDS011;41709;52.536;5.688;2024-03-08T13:06:24;24.27;;;16.27;;
55784;SDS011;41709;52.536;5.688;2024-03-08T13:08:52;25.90;;;15.65;;
55784;SDS011;41709;52.536;5.688;2024-03-08T13:11:18;23.90;;;15.80;;
55784;SDS011;41709;52.536;5.688;2024-03-08T13:13:45;23.75;;;16.17;;
55784;SDS011;41709;52.536;5.688;2024-03-08T13:16:11;22.77;;;15.25;;
55784;SDS011;41709;52.536;5.688;2024-03-08T13:18:40;25.38;;;15.45;;
55784;SDS011;41709;52.536;5.688;2024-03-08T13:21:09;22.08;;;14.80;;
55784;SDS011;41709;52.536;5.688;2024-03-08T13:23:40;23.70;;;14.95;;
55784;SDS011;41709;52.536;5.688;2024-03-08T13:26:06;22.77;;;15.15;;
55784;SDS011;41709;52.536;5.688;2024-03-08T13:28:32;22.50;;;15.75;;
55784;SDS011;41709;52.536;5.688;2024-03-08T13:31:04;24.55;;;15.27;;
55784;SDS011;41709;52.536;5.688;2024-03-08T13:33:35;21.75;;;15.30;;
55784;SDS011;41709;52.536;5.688;2024-03-08T13:38:42;24.50;;;15.95;;
55784;SDS011;41709;52.536;5.688;2024-03-08T13:41:08;23.92;;;16.00;;
55784;SDS011;41709;52.536;5.688;2024-03-08T13:43:34;23.95;;;15.48;;
55784;SDS011;41709;52.536;5.688;2024-03-08T13:46:01;23.83;;;16.00;;
55784;SDS011;41709;52.536;5.688;2024-03-08T13:48:27;22.70;;;16.15;;
55784;SDS011;41709;52.536;5.688;2024-03-08T13:50:53;21.63;;;15.40;;
55784;SDS011;41709;52.536;5.688;2024-03-08T13:53:20;25.02;;;16.83;;
55784;SDS011;41709;52.536;5.688;2024-03-08T13:55:45;21.92;;;15.23;;
55784;SDS011;41709;52.536;5.688;2024-03-08T13:58:11;25.80;;;17.05;;
55784;SDS011;41709;52.536;5.688;2024-03-08T14:00:39;22.10;;;15.55;;
55784;SDS011;41709;52.536;5.688;2024-03-08T14:03:06;20.35;;;15.90;;
55784;SDS011;41709;52.536;5.688;2024-03-08T14:05:32;22.40;;;16.55;;
55784;SDS011;41709;52.536;5.688;2024-03-08T14:08:01;22.13;;;15.70;;
55784;SDS011;41709;52.536;5.688;2024-03-08T14:10:32;20.65;;;15.10;;
55784;SDS011;41709;52.536;5.688;2024-03-08T14:12:58;19.92;;;15.18;;
55784;SDS011;41709;52.536;5.688;2024-03-08T14:15:23;21.67;;;15.18;;
55784;SDS011;41709;52.536;5.688;2024-03-08T14:17:53;20.15;;;15.20;;
55784;SDS011;41709;52.536;5.688;2024-03-08T14:20:20;20.88;;;16.25;;
55784;SDS011;41709;52.536;5.688;2024-03-08T14:22:50;22.70;;;14.88;;
55784;SDS011;41709;52.536;5.688;2024-03-08T14:25:16;19.90;;;14.85;;
55784;SDS011;41709;52.536;5.688;2024-03-08T14:27:43;20.98;;;15.57;;
55784;SDS011;41709;52.536;5.688;2024-03-08T14:30:09;19.50;;;14.77;;
55784;SDS011;41709;52.536;5.688;2024-03-08T14:32:36;19.25;;;15.65;;
55784;SDS011;41709;52.536;5.688;2024-03-08T14:35:03;19.30;;;14.68;;
55784;SDS011;41709;52.536;5.688;2024-03-08T14:37:30;18.95;;;14.32;;